sensor_id;sensor_type;location;lat;lon;timestamp;P1;durP1;ratioP1;P2;durP2;ratioP2
9424;SDS011;17139;52.140;11.636;2022-07-26T00:01:55;7.70;;;7.20;;
9424;SDS011;17139;52.140;11.636;2022-07-26T00:04:23;7.70;;;7.15;;
9424;SDS011;17139;52.140;11.636;2022-07-26T00:06:52;8.07;;;7.47;;
9424;SDS011;17139;52.140;11.636;2022-07-26T00:09:21;8.75;;;8.05;;
9424;SDS011;17139;52.140;11.636;2022-07-26T00:11:49;8.25;;;7.75;;
9424;SDS011;17139;52.140;11.636;2022-07-26T00:14:16;8.45;;;7.93;;
9424;SDS011;17139;52.140;11.636;2022-07-26T00:16:43;9.80;;;8.30;;
9424;SDS011;17139;52.140;11.636;2022-07-26T00:19:11;10.50;;;9.70;;
9424;SDS011;17139;52.140;11.636;2022-07-26T00:21:38;13.45;;;8.50;;
9424;SDS011;17139;52.140;11.636;2022-07-26T00:24:06;8.52;;;7.75;;
9424;SDS011;17139;52.140;11.636;2022-07-26T00:26:36;9.80;;;9.05;;
9424;SDS011;17139;52.140;11.636;2022-07-26T00:29:04;7.70;;;7.30;;
9424;SDS011;17139;52.140;11.636;2022-07-26T00:31:32;7.97;;;7.43;;
9424;SDS011;17139;52.140;11.636;2022-07-26T00:34:00;8.32;;;7.60;;
9424;SDS011;17139;52.140;11.636;2022-07-26T00:36:28;8.52;;;7.55;;
9424;SDS011;17139;52.140;11.636;2022-07-26T00:38:56;9.57;;;7.95;;
9424;SDS011;17139;52.140;11.636;2022-07-26T00:41:23;7.55;;;7.20;;
9424;SDS011;17139;52.140;11.636;2022-07-26T00:43:57;7.47;;;6.88;;
9424;SDS011;17139;52.140;11.636;2022-07-26T00:46:26;12.68;;;8.45;;
9424;SDS011;17139;52.140;11.636;2022-07-26T00:48:54;8.20;;;7.70;;
9424;SDS011;17139;52.140;11.636;2022-07-26T00:51:22;8.40;;;7.80;;
9424;SDS011;17139;52.140;11.636;2022-07-26T00:53:50;8.27;;;7.55;;
9424;SDS011;17139;52.140;11.636;2022-07-26T00:56:18;8.15;;;7.65;;
9424;SDS011;17139;52.140;11.636;2022-07-26T00:58:45;7.70;;;7.15;;
9424;SDS011;17139;52.140;11.636;2022-07-26T01:01:16;10.38;;;9.60;;
9424;SDS011;17139;52.140;11.636;2022-07-26T01:03:43;8.80;;;8.10;;
9424;SDS011;17139;52.140;11.636;2022-07-26T01:06:11;8.93;;;8.35;;
9424;SDS011;17139;52.140;11.636;2022-07-26T01:08:39;8.05;;;7.53;;
9424;SDS011;17139;52.140;11.636;2022-07-26T01:11:06;8.27;;;7.75;;
9424;SDS011;17139;52.140;11.636;2022-07-26T01:13:34;8.05;;;7.63;;
9424;SDS011;17139;52.140;11.636;2022-07-26T01:16:02;11.75;;;8.25;;
9424;SDS011;17139;52.140;11.636;2022-07-26T01:18:32;8.05;;;7.55;;
9424;SDS011;17139;52.140;11.636;2022-07-26T01:21:00;9.85;;;8.80;;
9424;SDS011;17139;52.140;11.636;2022-07-26T01:23:30;8.95;;;8.35;;
9424;SDS011;17139;52.140;11.636;2022-07-26T01:26:00;10.50;;;9.60;;
9424;SDS011;17139;52.140;11.636;2022-07-26T01:28:28;9.10;;;8.45;;
9424;SDS011;17139;52.140;11.636;2022-07-26T01:30:56;8.82;;;8.23;;
9424;SDS011;17139;52.140;11.636;2022-07-26T01:33:23;11.63;;;10.47;;
9424;SDS011;17139;52.140;11.636;2022-07-26T01:35:52;9.80;;;8.90;;
9424;SDS011;17139;52.140;11.636;2022-07-26T01:38:20;9.32;;;8.73;;
9424;SDS011;17139;52.140;11.636;2022-07-26T01:40:49;9.65;;;9.00;;
9424;SDS011;17139;52.140;11.636;2022-07-26T01:43:16;9.38;;;7.95;;
9424;SDS011;17139;52.140;11.636;2022-07-26T01:45:44;8.65;;;7.95;;
9424;SDS011;17139;52.140;11.636;2022-07-26T01:48:12;8.45;;;7.60;;
9424;SDS011;17139;52.140;11.636;2022-07-26T01:50:40;7.53;;;6.78;;
9424;SDS011;17139;52.140;11.636;2022-07-26T01:53:08;7.47;;;6.97;;
9424;SDS011;17139;52.140;11.636;2022-07-26T01:55:36;6.95;;;6.35;;
9424;SDS011;17139;52.140;11.636;2022-07-26T01:58:06;8.05;;;6.43;;
9424;SDS011;17139;52.140;11.636;2022-07-26T02:00:34;9.18;;;8.35;;
9424;SDS011;17139;52.140;11.636;2022-07-26T02:03:01;7.60;;;7.07;;
9424;SDS011;17139;52.140;11.636;2022-07-26T02:05:29;9.75;;;6.75;;
9424;SDS011;17139;52.140;11.636;2022-07-26T02:07:56;8.77;;;7.97;;
9424;SDS011;17139;52.140;11.636;2022-07-26T02:10:25;7.95;;;6.72;;
9424;SDS011;17139;52.140;11.636;2022-07-26T02:13:15;7.00;;;6.30;;
9424;SDS011;17139;52.140;11.636;2022-07-26T02:15:43;6.00;;;5.35;;
9424;SDS011;17139;52.140;11.636;2022-07-26T02:18:11;5.82;;;5.25;;
9424;SDS011;17139;52.140;11.636;2022-07-26T02:20:38;8.95;;;5.60;;
9424;SDS011;17139;52.140;11.636;2022-07-26T02:23:06;5.85;;;5.35;;
9424;SDS011;17139;52.140;11.636;2022-07-26T02:25:33;6.85;;;6.18;;
9424;SDS011;17139;52.140;11.636;2022-07-26T02:28:01;5.75;;;5.35;;
9424;SDS011;17139;52.140;11.636;2022-07-26T02:30:31;5.97;;;5.47;;
9424;SDS011;17139;52.140;11.636;2022-07-26T02:32:59;7.47;;;6.80;;
9424;SDS011;17139;52.140;11.636;2022-07-26T02:35:26;6.50;;;5.40;;
9424;SDS011;17139;52.140;11.636;2022-07-26T02:37:59;5.22;;;4.82;;
9424;SDS011;17139;52.140;11.636;2022-07-26T02:40:28;5.32;;;4.93;;
9424;SDS011;17139;52.140;11.636;2022-07-26T02:42:56;5.15;;;4.75;;
9424;SDS011;17139;52.140;11.636;2022-07-26T02:45:24;4.90;;;4.45;;
9424;SDS011;17139;52.140;11.636;2022-07-26T02:47:53;4.93;;;4.57;;
9424;SDS011;17139;52.140;11.636;2022-07-26T02:50:23;4.97;;;4.68;;
9424;SDS011;17139;52.140;11.636;2022-07-26T02:52:52;4.40;;;4.10;;
9424;SDS011;17139;52.140;11.636;2022-07-26T02:55:21;4.82;;;4.50;;
9424;SDS011;17139;52.140;11.636;2022-07-26T02:57:51;4.95;;;4.55;;
9424;SDS011;17139;52.140;11.636;2022-07-26T03:00:19;4.15;;;3.67;;
9424;SDS011;17139;52.140;11.636;2022-07-26T03:02:48;5.25;;;3.85;;
9424;SDS011;17139;52.140;11.636;2022-07-26T03:05:18;4.70;;;4.30;;
9424;SDS011;17139;52.140;11.636;2022-07-26T03:07:46;5.38;;;4.95;;
9424;SDS011;17139;52.140;11.636;2022-07-26T03:10:14;4.35;;;4.05;;
9424;SDS011;17139;52.140;11.636;2022-07-26T03:12:42;4.53;;;4.13;;
9424;SDS011;17139;52.140;11.636;2022-07-26T03:15:10;5.03;;;4.53;;
9424;SDS011;17139;52.140;11.636;2022-07-26T03:17:38;17.77;;;4.00;;
9424;SDS011;17139;52.140;11.636;2022-07-26T03:20:07;4.43;;;3.53;;
9424;SDS011;17139;52.140;11.636;2022-07-26T03:22:37;10.38;;;3.55;;
9424;SDS011;17139;52.140;11.636;2022-07-26T03:25:06;5.65;;;3.30;;
9424;SDS011;17139;52.140;11.636;2022-07-26T03:27:34;2.90;;;2.78;;
9424;SDS011;17139;52.140;11.636;2022-07-26T03:30:02;5.43;;;3.30;;
9424;SDS011;17139;52.140;11.636;2022-07-26T03:32:31;6.07;;;3.38;;
9424;SDS011;17139;52.140;11.636;2022-07-26T03:34:58;3.88;;;3.55;;
9424;SDS011;17139;52.140;11.636;2022-07-26T03:37:26;7.10;;;3.45;;
9424;SDS011;17139;52.140;11.636;2022-07-26T03:39:55;3.25;;;2.95;;
9424;SDS011;17139;52.140;11.636;2022-07-26T03:42:22;3.25;;;3.00;;
9424;SDS011;17139;52.140;11.636;2022-07-26T03:44:50;7.53;;;3.78;;
9424;SDS011;17139;52.140;11.636;2022-07-26T03:47:17;6.70;;;3.22;;
9424;SDS011;17139;52.140;11.636;2022-07-26T03:49:44;3.83;;;3.50;;
9424;SDS011;17139;52.140;11.636;2022-07-26T03:52:11;4.65;;;3.13;;
9424;SDS011;17139;52.140;11.636;2022-07-26T03:54:38;5.28;;;3.42;;
9424;SDS011;17139;52.140;11.636;2022-07-26T03:57:07;5.28;;;3.20;;
9424;SDS011;17139;52.140;11.636;2022-07-26T03:59:33;6.45;;;3.50;;
9424;SDS011;17139;52.140;11.636;2022-07-26T04:02:00;4.32;;;3.05;;
9424;SDS011;17139;52.140;11.636;2022-07-26T04:04:27;3.55;;;3.25;;
9424;SDS011;17139;52.140;11.636;2022-07-26T04:06:54;3.33;;;2.90;;
9424;SDS011;17139;52.140;11.636;2022-07-26T04:09:22;3.78;;;3.55;;
9424;SDS011;17139;52.140;11.636;2022-07-26T04:11:49;3.53;;;3.20;;
9424;SDS011;17139;52.140;11.636;2022-07-26T04:14:17;4.28;;;3.38;;
9424;SDS011;17139;52.140;11.636;2022-07-26T04:16:45;5.22;;;4.10;;
9424;SDS011;17139;52.140;11.636;2022-07-26T04:19:13;5.93;;;3.65;;
9424;SDS011;17139;52.140;11.636;2022-07-26T04:21:40;4.93;;;3.72;;
9424;SDS011;17139;52.140;11.636;2022-07-26T04:24:07;6.78;;;4.35;;
9424;SDS011;17139;52.140;11.636;2022-07-26T04:26:34;6.30;;;4.25;;
9424;SDS011;17139;52.140;11.636;2022-07-26T04:29:02;3.78;;;3.47;;
9424;SDS011;17139;52.140;11.636;2022-07-26T04:31:30;4.25;;;3.90;;
9424;SDS011;17139;52.140;11.636;2022-07-26T04:33:57;7.18;;;3.42;;
9424;SDS011;17139;52.140;11.636;2022-07-26T04:36:24;3.88;;;3.47;;
9424;SDS011;17139;52.140;11.636;2022-07-26T04:38:51;4.05;;;3.72;;
9424;SDS011;17139;52.140;11.636;2022-07-26T04:41:19;4.30;;;3.35;;
9424;SDS011;17139;52.140;11.636;2022-07-26T04:43:46;8.73;;;3.63;;
9424;SDS011;17139;52.140;11.636;2022-07-26T04:46:13;4.10;;;3.72;;
9424;SDS011;17139;52.140;11.636;2022-07-26T04:48:41;9.70;;;3.53;;
9424;SDS011;17139;52.140;11.636;2022-07-26T04:51:08;3.53;;;3.22;;
9424;SDS011;17139;52.140;11.636;2022-07-26T04:53:35;4.60;;;3.47;;
9424;SDS011;17139;52.140;11.636;2022-07-26T04:56:03;4.45;;;2.80;;
9424;SDS011;17139;52.140;11.636;2022-07-26T04:58:30;7.13;;;3.33;;
9424;SDS011;17139;52.140;11.636;2022-07-26T05:00:58;4.13;;;3.25;;
9424;SDS011;17139;52.140;11.636;2022-07-26T05:03:25;3.47;;;3.20;;
9424;SDS011;17139;52.140;11.636;2022-07-26T05:05:53;6.05;;;3.33;;
9424;SDS011;17139;52.140;11.636;2022-07-26T05:08:20;3.60;;;3.03;;
9424;SDS011;17139;52.140;11.636;2022-07-26T05:10:47;5.72;;;2.80;;
9424;SDS011;17139;52.140;11.636;2022-07-26T05:13:14;2.92;;;2.67;;
9424;SDS011;17139;52.140;11.636;2022-07-26T05:15:41;6.03;;;2.65;;
9424;SDS011;17139;52.140;11.636;2022-07-26T05:18:09;6.88;;;2.72;;
9424;SDS011;17139;52.140;11.636;2022-07-26T05:20:36;2.63;;;2.47;;
9424;SDS011;17139;52.140;11.636;2022-07-26T05:23:05;6.18;;;3.15;;
9424;SDS011;17139;52.140;11.636;2022-07-26T05:25:32;2.65;;;2.55;;
9424;SDS011;17139;52.140;11.636;2022-07-26T05:28:00;3.25;;;2.50;;
9424;SDS011;17139;52.140;11.636;2022-07-26T05:30:27;9.55;;;2.40;;
9424;SDS011;17139;52.140;11.636;2022-07-26T05:32:54;3.05;;;2.50;;
9424;SDS011;17139;52.140;11.636;2022-07-26T05:35:21;3.90;;;2.50;;
9424;SDS011;17139;52.140;11.636;2022-07-26T05:37:49;3.92;;;3.08;;
9424;SDS011;17139;52.140;11.636;2022-07-26T05:40:17;2.67;;;2.25;;
9424;SDS011;17139;52.140;11.636;2022-07-26T05:42:44;2.75;;;2.25;;
9424;SDS011;17139;52.140;11.636;2022-07-26T05:45:11;7.38;;;2.65;;
9424;SDS011;17139;52.140;11.636;2022-07-26T05:47:39;4.78;;;2.30;;
9424;SDS011;17139;52.140;11.636;2022-07-26T05:50:06;3.30;;;2.20;;
9424;SDS011;17139;52.140;11.636;2022-07-26T05:52:34;3.88;;;2.63;;
9424;SDS011;17139;52.140;11.636;2022-07-26T05:55:01;5.68;;;2.13;;
9424;SDS011;17139;52.140;11.636;2022-07-26T05:57:30;3.30;;;2.22;;
9424;SDS011;17139;52.140;11.636;2022-07-26T05:59:57;2.30;;;1.83;;
9424;SDS011;17139;52.140;11.636;2022-07-26T06:02:24;3.33;;;2.08;;
9424;SDS011;17139;52.140;11.636;2022-07-26T06:04:51;3.33;;;2.00;;
9424;SDS011;17139;52.140;11.636;2022-07-26T06:07:18;2.30;;;2.10;;
9424;SDS011;17139;52.140;11.636;2022-07-26T06:09:46;1.98;;;1.77;;
9424;SDS011;17139;52.140;11.636;2022-07-26T06:12:13;8.43;;;1.90;;
9424;SDS011;17139;52.140;11.636;2022-07-26T06:14:41;1.95;;;1.42;;
9424;SDS011;17139;52.140;11.636;2022-07-26T06:17:08;3.03;;;1.70;;
9424;SDS011;17139;52.140;11.636;2022-07-26T06:19:36;1.75;;;1.58;;
9424;SDS011;17139;52.140;11.636;2022-07-26T06:22:03;2.78;;;1.60;;
9424;SDS011;17139;52.140;11.636;2022-07-26T06:24:30;2.35;;;2.00;;
9424;SDS011;17139;52.140;11.636;2022-07-26T06:26:57;3.25;;;1.80;;
9424;SDS011;17139;52.140;11.636;2022-07-26T06:29:24;1.50;;;1.40;;
9424;SDS011;17139;52.140;11.636;2022-07-26T06:31:53;3.38;;;1.85;;
9424;SDS011;17139;52.140;11.636;2022-07-26T06:34:20;1.70;;;1.60;;
9424;SDS011;17139;52.140;11.636;2022-07-26T06:36:47;1.67;;;1.55;;
9424;SDS011;17139;52.140;11.636;2022-07-26T06:39:14;2.17;;;1.70;;
9424;SDS011;17139;52.140;11.636;2022-07-26T06:41:41;4.50;;;1.38;;
9424;SDS011;17139;52.140;11.636;2022-07-26T06:44:08;1.60;;;1.50;;
9424;SDS011;17139;52.140;11.636;2022-07-26T06:46:36;2.60;;;1.30;;
9424;SDS011;17139;52.140;11.636;2022-07-26T06:49:05;2.60;;;1.73;;
9424;SDS011;17139;52.140;11.636;2022-07-26T06:51:32;3.45;;;1.40;;
9424;SDS011;17139;52.140;11.636;2022-07-26T06:53:59;1.33;;;1.20;;
9424;SDS011;17139;52.140;11.636;2022-07-26T06:56:26;4.57;;;1.50;;
9424;SDS011;17139;52.140;11.636;2022-07-26T06:58:52;1.70;;;1.60;;
9424;SDS011;17139;52.140;11.636;2022-07-26T07:01:20;2.00;;;1.33;;
9424;SDS011;17139;52.140;11.636;2022-07-26T07:03:47;3.60;;;1.70;;
9424;SDS011;17139;52.140;11.636;2022-07-26T07:06:15;2.80;;;1.90;;
9424;SDS011;17139;52.140;11.636;2022-07-26T07:08:42;1.95;;;1.67;;
9424;SDS011;17139;52.140;11.636;2022-07-26T07:11:24;2.75;;;1.52;;
9424;SDS011;17139;52.140;11.636;2022-07-26T07:13:51;6.20;;;1.75;;
9424;SDS011;17139;52.140;11.636;2022-07-26T07:16:18;3.92;;;1.60;;
9424;SDS011;17139;52.140;11.636;2022-07-26T07:18:45;2.80;;;1.60;;
9424;SDS011;17139;52.140;11.636;2022-07-26T07:21:13;2.70;;;1.60;;
9424;SDS011;17139;52.140;11.636;2022-07-26T07:23:41;1.92;;;1.48;;
9424;SDS011;17139;52.140;11.636;2022-07-26T07:26:08;1.38;;;1.27;;
9424;SDS011;17139;52.140;11.636;2022-07-26T07:28:35;1.95;;;1.83;;
9424;SDS011;17139;52.140;11.636;2022-07-26T07:31:03;2.25;;;1.63;;
9424;SDS011;17139;52.140;11.636;2022-07-26T07:33:30;3.95;;;1.65;;
9424;SDS011;17139;52.140;11.636;2022-07-26T07:38:47;3.03;;;1.75;;
9424;SDS011;17139;52.140;11.636;2022-07-26T07:41:15;1.85;;;1.50;;
9424;SDS011;17139;52.140;11.636;2022-07-26T07:43:42;3.80;;;1.42;;
9424;SDS011;17139;52.140;11.636;2022-07-26T07:46:09;3.08;;;1.90;;
9424;SDS011;17139;52.140;11.636;2022-07-26T07:48:37;5.05;;;1.75;;
9424;SDS011;17139;52.140;11.636;2022-07-26T07:51:06;1.60;;;1.50;;
9424;SDS011;17139;52.140;11.636;2022-07-26T07:53:33;4.80;;;1.95;;
9424;SDS011;17139;52.140;11.636;2022-07-26T07:56:02;1.92;;;1.75;;
9424;SDS011;17139;52.140;11.636;2022-07-26T07:58:29;3.45;;;2.00;;
9424;SDS011;17139;52.140;11.636;2022-07-26T08:00:56;2.50;;;1.70;;
9424;SDS011;17139;52.140;11.636;2022-07-26T08:03:23;5.35;;;1.73;;
9424;SDS011;17139;52.140;11.636;2022-07-26T08:05:50;2.08;;;1.85;;
9424;SDS011;17139;52.140;11.636;2022-07-26T08:08:18;2.53;;;1.80;;
9424;SDS011;17139;52.140;11.636;2022-07-26T08:10:45;2.05;;;1.88;;
9424;SDS011;17139;52.140;11.636;2022-07-26T08:13:14;2.47;;;1.70;;
9424;SDS011;17139;52.140;11.636;2022-07-26T08:15:41;2.05;;;1.70;;
9424;SDS011;17139;52.140;11.636;2022-07-26T08:18:08;4.05;;;2.20;;
9424;SDS011;17139;52.140;11.636;2022-07-26T08:20:36;2.50;;;2.10;;
9424;SDS011;17139;52.140;11.636;2022-07-26T08:23:03;4.00;;;2.20;;
9424;SDS011;17139;52.140;11.636;2022-07-26T08:25:30;3.05;;;1.75;;
9424;SDS011;17139;52.140;11.636;2022-07-26T08:27:57;2.15;;;2.05;;
9424;SDS011;17139;52.140;11.636;2022-07-26T08:30:26;2.10;;;1.90;;
9424;SDS011;17139;52.140;11.636;2022-07-26T08:32:53;3.72;;;2.00;;
9424;SDS011;17139;52.140;11.636;2022-07-26T08:35:20;2.03;;;1.90;;
9424;SDS011;17139;52.140;11.636;2022-07-26T08:37:48;2.00;;;1.92;;
9424;SDS011;17139;52.140;11.636;2022-07-26T08:40:15;3.80;;;2.40;;
9424;SDS011;17139;52.140;11.636;2022-07-26T08:42:47;2.05;;;1.95;;
9424;SDS011;17139;52.140;11.636;2022-07-26T08:45:20;3.97;;;2.28;;
9424;SDS011;17139;52.140;11.636;2022-07-26T08:47:50;2.10;;;2.00;;
9424;SDS011;17139;52.140;11.636;2022-07-26T08:50:17;2.42;;;2.20;;
9424;SDS011;17139;52.140;11.636;2022-07-26T08:52:45;4.15;;;2.10;;
9424;SDS011;17139;52.140;11.636;2022-07-26T08:55:14;2.22;;;1.92;;
9424;SDS011;17139;52.140;11.636;2022-07-26T08:57:42;2.40;;;2.20;;
9424;SDS011;17139;52.140;11.636;2022-07-26T09:00:12;2.10;;;2.00;;
9424;SDS011;17139;52.140;11.636;2022-07-26T09:02:40;2.10;;;2.00;;
9424;SDS011;17139;52.140;11.636;2022-07-26T09:05:09;4.03;;;2.00;;
9424;SDS011;17139;52.140;11.636;2022-07-26T09:07:37;2.10;;;2.00;;
9424;SDS011;17139;52.140;11.636;2022-07-26T09:10:06;1.85;;;1.80;;
9424;SDS011;17139;52.140;11.636;2022-07-26T09:12:35;2.47;;;2.00;;
9424;SDS011;17139;52.140;11.636;2022-07-26T09:15:04;2.08;;;1.98;;
9424;SDS011;17139;52.140;11.636;2022-07-26T09:17:37;2.23;;;2.13;;
9424;SDS011;17139;52.140;11.636;2022-07-26T09:20:07;4.70;;;2.17;;
9424;SDS011;17139;52.140;11.636;2022-07-26T09:22:38;2.15;;;2.05;;
9424;SDS011;17139;52.140;11.636;2022-07-26T09:25:22;1.83;;;1.73;;
9424;SDS011;17139;52.140;11.636;2022-07-26T09:27:50;1.60;;;1.60;;
9424;SDS011;17139;52.140;11.636;2022-07-26T09:30:18;2.50;;;1.60;;
9424;SDS011;17139;52.140;11.636;2022-07-26T09:32:54;1.70;;;1.60;;
9424;SDS011;17139;52.140;11.636;2022-07-26T09:35:28;2.90;;;2.10;;
9424;SDS011;17139;52.140;11.636;2022-07-26T09:37:57;4.00;;;1.70;;
9424;SDS011;17139;52.140;11.636;2022-07-26T09:40:29;3.17;;;1.50;;
9424;SDS011;17139;52.140;11.636;2022-07-26T09:42:59;1.63;;;1.45;;
9424;SDS011;17139;52.140;11.636;2022-07-26T09:45:30;1.83;;;1.73;;
9424;SDS011;17139;52.140;11.636;2022-07-26T09:47:58;1.92;;;1.83;;
9424;SDS011;17139;52.140;11.636;2022-07-26T09:50:28;2.17;;;1.75;;
9424;SDS011;17139;52.140;11.636;2022-07-26T09:52:56;2.80;;;2.10;;
9424;SDS011;17139;52.140;11.636;2022-07-26T09:55:25;2.13;;;2.03;;
9424;SDS011;17139;52.140;11.636;2022-07-26T09:57:53;3.13;;;1.90;;
9424;SDS011;17139;52.140;11.636;2022-07-26T10:00:20;2.05;;;1.95;;
9424;SDS011;17139;52.140;11.636;2022-07-26T10:02:50;1.52;;;1.50;;
9424;SDS011;17139;52.140;11.636;2022-07-26T10:05:18;1.70;;;1.63;;
9424;SDS011;17139;52.140;11.636;2022-07-26T10:07:47;2.33;;;1.52;;
9424;SDS011;17139;52.140;11.636;2022-07-26T10:10:17;1.80;;;1.70;;
9424;SDS011;17139;52.140;11.636;2022-07-26T10:12:48;1.55;;;1.55;;
9424;SDS011;17139;52.140;11.636;2022-07-26T10:15:32;2.15;;;2.05;;
9424;SDS011;17139;52.140;11.636;2022-07-26T10:18:04;2.72;;;2.20;;
9424;SDS011;17139;52.140;11.636;2022-07-26T10:20:37;2.10;;;2.00;;
9424;SDS011;17139;52.140;11.636;2022-07-26T10:26:04;3.10;;;2.40;;
9424;SDS011;17139;52.140;11.636;2022-07-26T10:28:33;2.00;;;1.90;;
9424;SDS011;17139;52.140;11.636;2022-07-26T10:31:21;2.08;;;1.98;;
9424;SDS011;17139;52.140;11.636;2022-07-26T10:33:51;4.65;;;1.95;;
9424;SDS011;17139;52.140;11.636;2022-07-26T10:36:20;2.15;;;2.00;;
9424;SDS011;17139;52.140;11.636;2022-07-26T10:38:59;2.42;;;2.20;;
9424;SDS011;17139;52.140;11.636;2022-07-26T10:41:37;2.80;;;2.08;;
9424;SDS011;17139;52.140;11.636;2022-07-26T10:44:12;4.18;;;2.03;;
9424;SDS011;17139;52.140;11.636;2022-07-26T10:47:09;2.60;;;1.80;;
9424;SDS011;17139;52.140;11.636;2022-07-26T10:49:40;5.32;;;2.50;;
9424;SDS011;17139;52.140;11.636;2022-07-26T10:52:10;1.85;;;1.85;;
9424;SDS011;17139;52.140;11.636;2022-07-26T10:57:43;2.20;;;2.10;;
9424;SDS011;17139;52.140;11.636;2022-07-26T11:00:13;1.85;;;1.75;;
9424;SDS011;17139;52.140;11.636;2022-07-26T11:02:42;1.42;;;1.33;;
9424;SDS011;17139;52.140;11.636;2022-07-26T11:05:13;1.30;;;0.73;;
9424;SDS011;17139;52.140;11.636;2022-07-26T11:07:54;1.25;;;0.88;;
9424;SDS011;17139;52.140;11.636;2022-07-26T11:10:28;1.02;;;0.90;;
9424;SDS011;17139;52.140;11.636;2022-07-26T11:13:00;1.00;;;1.00;;
9424;SDS011;17139;52.140;11.636;2022-07-26T11:15:38;1.00;;;1.00;;
9424;SDS011;17139;52.140;11.636;2022-07-26T11:18:07;1.30;;;1.20;;
9424;SDS011;17139;52.140;11.636;2022-07-26T11:20:42;0.50;;;0.50;;
9424;SDS011;17139;52.140;11.636;2022-07-26T11:23:28;0.70;;;0.70;;
9424;SDS011;17139;52.140;11.636;2022-07-26T11:26:05;0.63;;;0.63;;
9424;SDS011;17139;52.140;11.636;2022-07-26T11:28:50;0.88;;;0.88;;
9424;SDS011;17139;52.140;11.636;2022-07-26T11:31:20;1.00;;;1.00;;
9424;SDS011;17139;52.140;11.636;2022-07-26T11:33:50;1.20;;;1.17;;
9424;SDS011;17139;52.140;11.636;2022-07-26T11:36:18;1.30;;;1.30;;
9424;SDS011;17139;52.140;11.636;2022-07-26T11:38:57;1.20;;;1.15;;
9424;SDS011;17139;52.140;11.636;2022-07-26T11:41:26;1.90;;;1.20;;
9424;SDS011;17139;52.140;11.636;2022-07-26T11:43:55;1.20;;;1.20;;
9424;SDS011;17139;52.140;11.636;2022-07-26T11:46:30;1.23;;;1.23;;
9424;SDS011;17139;52.140;11.636;2022-07-26T11:49:02;2.67;;;1.42;;
9424;SDS011;17139;52.140;11.636;2022-07-26T11:51:31;1.50;;;1.40;;
9424;SDS011;17139;52.140;11.636;2022-07-26T11:54:01;1.60;;;1.50;;
9424;SDS011;17139;52.140;11.636;2022-07-26T11:56:30;1.38;;;1.27;;
9424;SDS011;17139;52.140;11.636;2022-07-26T11:58:57;1.20;;;0.85;;
9424;SDS011;17139;52.140;11.636;2022-07-26T12:01:25;2.38;;;1.10;;
9424;SDS011;17139;52.140;11.636;2022-07-26T12:03:53;1.10;;;1.10;;
9424;SDS011;17139;52.140;11.636;2022-07-26T12:06:22;1.40;;;1.27;;
9424;SDS011;17139;52.140;11.636;2022-07-26T12:08:53;2.35;;;1.10;;
9424;SDS011;17139;52.140;11.636;2022-07-26T12:11:21;1.75;;;1.25;;
9424;SDS011;17139;52.140;11.636;2022-07-26T12:13:53;1.25;;;1.15;;
9424;SDS011;17139;52.140;11.636;2022-07-26T12:16:35;1.00;;;1.00;;
9424;SDS011;17139;52.140;11.636;2022-07-26T12:19:08;2.25;;;1.17;;
9424;SDS011;17139;52.140;11.636;2022-07-26T12:21:47;1.30;;;1.20;;
9424;SDS011;17139;52.140;11.636;2022-07-26T12:27:06;1.08;;;1.00;;
9424;SDS011;17139;52.140;11.636;2022-07-26T12:29:35;1.55;;;1.05;;
9424;SDS011;17139;52.140;11.636;2022-07-26T12:32:04;1.50;;;1.40;;
9424;SDS011;17139;52.140;11.636;2022-07-26T12:34:34;1.10;;;1.10;;
9424;SDS011;17139;52.140;11.636;2022-07-26T12:37:06;0.93;;;0.93;;
9424;SDS011;17139;52.140;11.636;2022-07-26T12:39:38;2.65;;;1.30;;
9424;SDS011;17139;52.140;11.636;2022-07-26T12:44:57;0.95;;;0.82;;
9424;SDS011;17139;52.140;11.636;2022-07-26T12:47:25;1.10;;;1.10;;
9424;SDS011;17139;52.140;11.636;2022-07-26T12:49:53;2.28;;;1.08;;
9424;SDS011;17139;52.140;11.636;2022-07-26T12:52:21;2.05;;;1.10;;
9424;SDS011;17139;52.140;11.636;2022-07-26T12:54:49;1.00;;;1.00;;
9424;SDS011;17139;52.140;11.636;2022-07-26T12:57:17;2.10;;;1.10;;
9424;SDS011;17139;52.140;11.636;2022-07-26T12:59:44;0.90;;;0.90;;
9424;SDS011;17139;52.140;11.636;2022-07-26T13:02:14;1.27;;;1.15;;
9424;SDS011;17139;52.140;11.636;2022-07-26T13:04:43;1.02;;;1.02;;
9424;SDS011;17139;52.140;11.636;2022-07-26T13:07:10;2.20;;;1.13;;
9424;SDS011;17139;52.140;11.636;2022-07-26T13:09:37;1.00;;;1.00;;
9424;SDS011;17139;52.140;11.636;2022-07-26T13:12:05;1.20;;;1.10;;
9424;SDS011;17139;52.140;11.636;2022-07-26T13:14:33;1.23;;;1.13;;
9424;SDS011;17139;52.140;11.636;2022-07-26T13:17:01;4.10;;;1.20;;
9424;SDS011;17139;52.140;11.636;2022-07-26T13:19:31;1.05;;;0.98;;
9424;SDS011;17139;52.140;11.636;2022-07-26T13:21:58;1.45;;;1.20;;
9424;SDS011;17139;52.140;11.636;2022-07-26T13:24:27;0.95;;;0.95;;
9424;SDS011;17139;52.140;11.636;2022-07-26T13:26:55;0.98;;;0.98;;
9424;SDS011;17139;52.140;11.636;2022-07-26T13:29:23;1.55;;;1.20;;
9424;SDS011;17139;52.140;11.636;2022-07-26T13:31:50;0.95;;;0.95;;
9424;SDS011;17139;52.140;11.636;2022-07-26T13:34:17;0.77;;;0.77;;
9424;SDS011;17139;52.140;11.636;2022-07-26T13:36:47;0.90;;;0.90;;
9424;SDS011;17139;52.140;11.636;2022-07-26T13:39:14;0.70;;;0.70;;
9424;SDS011;17139;52.140;11.636;2022-07-26T13:41:41;2.20;;;1.00;;
9424;SDS011;17139;52.140;11.636;2022-07-26T13:44:09;1.02;;;1.00;;
9424;SDS011;17139;52.140;11.636;2022-07-26T13:46:36;2.75;;;0.93;;
9424;SDS011;17139;52.140;11.636;2022-07-26T13:49:03;1.67;;;0.90;;
9424;SDS011;17139;52.140;11.636;2022-07-26T13:51:31;1.42;;;1.10;;
9424;SDS011;17139;52.140;11.636;2022-07-26T13:54:18;1.50;;;1.13;;
9424;SDS011;17139;52.140;11.636;2022-07-26T13:56:46;0.70;;;0.70;;
9424;SDS011;17139;52.140;11.636;2022-07-26T13:59:14;1.17;;;0.90;;
9424;SDS011;17139;52.140;11.636;2022-07-26T14:01:42;0.85;;;0.85;;
9424;SDS011;17139;52.140;11.636;2022-07-26T14:04:09;1.52;;;0.77;;
9424;SDS011;17139;52.140;11.636;2022-07-26T14:06:37;0.88;;;0.88;;
9424;SDS011;17139;52.140;11.636;2022-07-26T14:09:04;0.65;;;0.65;;
9424;SDS011;17139;52.140;11.636;2022-07-26T14:11:34;0.73;;;0.73;;
9424;SDS011;17139;52.140;11.636;2022-07-26T14:14:01;1.00;;;0.85;;
9424;SDS011;17139;52.140;11.636;2022-07-26T14:16:29;1.00;;;0.90;;
9424;SDS011;17139;52.140;11.636;2022-07-26T14:18:56;0.80;;;0.80;;
9424;SDS011;17139;52.140;11.636;2022-07-26T14:21:23;1.77;;;0.90;;
9424;SDS011;17139;52.140;11.636;2022-07-26T14:23:51;0.80;;;0.80;;
9424;SDS011;17139;52.140;11.636;2022-07-26T14:26:18;0.83;;;0.83;;
9424;SDS011;17139;52.140;11.636;2022-07-26T14:28:46;2.03;;;0.90;;
9424;SDS011;17139;52.140;11.636;2022-07-26T14:31:14;0.70;;;0.70;;
9424;SDS011;17139;52.140;11.636;2022-07-26T14:33:41;0.88;;;0.88;;
9424;SDS011;17139;52.140;11.636;2022-07-26T14:36:09;0.60;;;0.60;;
9424;SDS011;17139;52.140;11.636;2022-07-26T14:38:37;0.57;;;0.57;;
9424;SDS011;17139;52.140;11.636;2022-07-26T14:41:04;0.63;;;0.63;;
9424;SDS011;17139;52.140;11.636;2022-07-26T14:43:31;0.65;;;0.65;;
9424;SDS011;17139;52.140;11.636;2022-07-26T14:45:59;2.03;;;1.25;;
9424;SDS011;17139;52.140;11.636;2022-07-26T14:48:27;0.93;;;0.75;;
9424;SDS011;17139;52.140;11.636;2022-07-26T14:50:54;1.65;;;0.60;;
9424;SDS011;17139;52.140;11.636;2022-07-26T14:53:21;1.15;;;0.70;;
9424;SDS011;17139;52.140;11.636;2022-07-26T14:55:48;0.60;;;0.60;;
9424;SDS011;17139;52.140;11.636;2022-07-26T14:58:16;1.60;;;0.70;;
9424;SDS011;17139;52.140;11.636;2022-07-26T15:00:43;1.20;;;0.80;;
9424;SDS011;17139;52.140;11.636;2022-07-26T15:03:11;0.63;;;0.63;;
9424;SDS011;17139;52.140;11.636;2022-07-26T15:05:39;2.65;;;0.60;;
9424;SDS011;17139;52.140;11.636;2022-07-26T15:08:06;0.68;;;0.68;;
9424;SDS011;17139;52.140;11.636;2022-07-26T15:10:34;0.90;;;0.90;;
9424;SDS011;17139;52.140;11.636;2022-07-26T15:13:02;0.57;;;0.57;;